Decoded Metar for KMLS (MILES CITY in MT, USA) (IATA:MLS) | Meteo·Mobile Aviation Weather
aviador You're here:

KMLS Decoded Metar

MILES CITY in MT, USA
Report Time2018-11-18 00:53:00
UTC Time2018-11-18 01:47:16
Flight Rules vfr VFR
Wind180° at 06 kt
W.Decomp.*RWY 12: 4.0 kt HW 4.5 kt RCW
RWY 22: 3.7 kt HW 4.7 kt LCW
W.Rank180° ranks 27
Current wind is below 180° avg. (6.0)
Visibility9999 m
Phenomena:N/A
Clouds:N/A
Expected CloudBase > 1,200 ft AGL from Temp-Dew spread
CeilingNone
Temp-6°C (ISA -16)
Dew Point-9°C (80% RH)
AAT-11.1°C
QNH1025 hPa
Density Alt331 ft
Elevation2,628 ft
Report Wrong Elevation
Raw Report
KMLS 180053Z AUTO 18006KT 10SM CLR M06/M09 A3028 RMK AO2 SLP300
T10561089=

Extra information for KMLS:More info

Metar Taf Metar & Taf Last 4 Metars F.Rules Stats Wind Profile Meteogram Temp Stats Airport Information Weather charts Add Link Nearby VenuesMetar ALERT Operation Metar Decoded Social comments

AIRNAV info for KMLS